createdAt,value
2018-12-26T00:02:08.440Z,72.50
2018-12-26T00:04:53.505Z,72.20
2018-12-26T00:07:20.975Z,72.60
2018-12-26T00:10:05.986Z,72.70
2018-12-26T00:12:32.263Z,72.50
2018-12-26T00:14:58.642Z,72.50
2018-12-26T00:17:27.626Z,72.20
2018-12-26T00:19:54.185Z,72.50
2018-12-26T00:22:23.294Z,72.00
2018-12-26T00:24:49.620Z,72.50
2018-12-26T00:27:16.077Z,72.60
2018-12-26T00:29:48.964Z,72.60
2018-12-26T00:32:35.324Z,72.40
2018-12-26T00:35:15.355Z,72.60
2018-12-26T00:37:54.573Z,72.50
2018-12-26T00:40:36.621Z,72.40
2018-12-26T00:43:16.876Z,72.40
2018-12-26T00:45:57.048Z,72.60
2018-12-26T00:48:37.029Z,72.30
2018-12-26T00:51:16.892Z,72.50
2018-12-26T00:53:58.824Z,72.50
2018-12-26T00:56:39.974Z,72.50
2018-12-26T00:59:19.970Z,72.50
2018-12-26T01:01:59.924Z,72.50
2018-12-26T01:04:42.238Z,72.10
2018-12-26T01:07:24.266Z,72.00
2018-12-26T01:10:04.210Z,72.40
2018-12-26T01:12:44.110Z,72.40
2018-12-26T01:15:26.009Z,72.40
2018-12-26T01:18:05.947Z,72.30
2018-12-26T01:20:45.817Z,72.60
2018-12-26T01:23:25.776Z,72.10
2018-12-26T01:26:05.572Z,71.90
2018-12-26T01:28:45.555Z,72.60
2018-12-26T01:31:27.841Z,72.70
2018-12-26T01:34:07.640Z,72.90
2018-12-26T01:36:47.508Z,72.30
2018-12-26T01:39:27.312Z,72.40
2018-12-26T01:42:09.351Z,72.40
2018-12-26T01:44:49.312Z,72.70
2018-12-26T01:47:31.193Z,72.60
2018-12-26T01:50:11.218Z,72.60
2018-12-26T01:52:51.319Z,72.60
2018-12-26T01:55:34.261Z,72.90
2018-12-26T01:58:13.362Z,72.90
2018-12-26T02:00:53.377Z,72.90
2018-12-26T02:03:33.392Z,72.90
2018-12-26T02:06:13.330Z,73.00
2018-12-26T02:08:53.386Z,73.00
2018-12-26T02:11:35.485Z,72.70
2018-12-26T02:14:15.433Z,73.00
2018-12-26T02:16:54.664Z,73.00
2018-12-26T02:19:34.565Z,73.00
2018-12-26T02:22:17.466Z,73.00
2018-12-26T02:24:57.433Z,72.90
2018-12-26T02:27:37.652Z,73.10
2018-12-26T02:30:17.473Z,73.00
2018-12-26T02:32:57.364Z,73.20
2018-12-26T02:35:37.513Z,73.40
2018-12-26T02:38:17.684Z,73.50
2018-12-26T02:40:57.598Z,73.20
2018-12-26T02:43:37.743Z,73.00
2018-12-26T02:46:19.597Z,72.80
2018-12-26T02:48:59.708Z,73.20
2018-12-26T02:51:39.671Z,73.40
2018-12-26T02:54:21.514Z,73.40
2018-12-26T02:57:01.433Z,73.60
2018-12-26T02:59:41.346Z,73.40
2018-12-26T03:02:21.193Z,73.70
2018-12-26T03:05:01.288Z,73.50
2018-12-26T03:07:43.435Z,73.60
2018-12-26T03:10:23.476Z,73.70
2018-12-26T03:13:03.380Z,73.40
2018-12-26T03:15:45.489Z,73.50
2018-12-26T03:18:27.318Z,74.30
2018-12-26T03:21:07.080Z,73.70
2018-12-26T03:23:46.962Z,73.70
2018-12-26T03:26:26.882Z,73.60
2018-12-26T03:29:08.949Z,73.70
2018-12-26T03:31:48.755Z,73.30
2018-12-26T03:34:28.758Z,73.60
2018-12-26T03:37:08.597Z,73.40
2018-12-26T03:39:51.473Z,73.70
2018-12-26T03:42:31.403Z,73.60
2018-12-26T03:45:13.462Z,73.90
2018-12-26T03:47:53.232Z,73.90
2018-12-26T03:50:33.170Z,73.70
2018-12-26T03:53:12.981Z,74.10
2018-12-26T03:55:52.800Z,74.10
2018-12-26T03:58:32.723Z,74.30
2018-12-26T04:01:12.426Z,74.10
2018-12-26T04:03:52.523Z,74.10
2018-12-26T04:06:34.472Z,74.30
2018-12-26T04:09:14.364Z,74.10
2018-12-26T04:11:56.364Z,74.20
2018-12-26T04:14:36.163Z,73.80
2018-12-26T04:17:16.070Z,74.00
2018-12-26T04:19:57.986Z,73.70
2018-12-26T04:22:37.945Z,74.10
2018-12-26T04:25:17.941Z,74.10
2018-12-26T04:27:57.801Z,74.30
2018-12-26T04:30:37.796Z,74.00
2018-12-26T04:33:17.597Z,74.30
2018-12-26T04:35:57.482Z,74.50
2018-12-26T04:38:37.624Z,74.40
2018-12-26T04:41:17.415Z,74.20
2018-12-26T04:43:57.326Z,74.40
2018-12-26T04:46:37.102Z,74.60
2018-12-26T04:49:17.034Z,74.70
2018-12-26T04:51:58.905Z,74.80
2018-12-26T04:54:38.847Z,74.70
2018-12-26T04:57:24.950Z,74.80
2018-12-26T05:00:02.904Z,74.40
2018-12-26T05:02:42.839Z,74.50
2018-12-26T05:05:24.926Z,74.70
2018-12-26T05:08:04.904Z,74.90
2018-12-26T05:10:44.952Z,75.00
2018-12-26T05:13:24.679Z,74.90
2018-12-26T05:16:04.436Z,75.10
2018-12-26T05:18:46.492Z,75.30
2018-12-26T05:21:26.452Z,75.20
2018-12-26T05:24:06.399Z,75.10
2018-12-26T05:26:46.067Z,75.20
2018-12-26T05:29:26.119Z,74.90
2018-12-26T05:32:08.082Z,75.70
2018-12-26T05:34:48.130Z,75.20
2018-12-26T05:37:28.010Z,75.50
2018-12-26T05:40:07.932Z,75.80
2018-12-26T05:42:49.954Z,75.90
2018-12-26T05:45:29.673Z,76.00
2018-12-26T05:48:11.672Z,76.10
2018-12-26T05:50:51.844Z,76.30
2018-12-26T05:53:31.850Z,76.40
2018-12-26T05:56:11.690Z,76.50
2018-12-26T05:58:51.602Z,76.60
2018-12-26T06:01:31.718Z,76.60
2018-12-26T06:04:13.568Z,76.80
2018-12-26T06:06:53.459Z,77.10
2018-12-26T06:09:35.441Z,77.50
2018-12-26T06:12:15.397Z,77.80
2018-12-26T06:14:55.420Z,78.10
2018-12-26T06:17:34.693Z,78.50
2018-12-26T06:20:12.080Z,78.40
2018-12-26T06:22:58.217Z,78.50
2018-12-26T06:25:38.131Z,78.80
2018-12-26T06:28:21.026Z,79.00
2018-12-26T06:31:00.712Z,79.40
2018-12-26T06:34:01.015Z,79.70
2018-12-26T06:36:40.998Z,79.80
2018-12-26T06:39:21.089Z,79.80
2018-12-26T06:42:00.962Z,79.90
2018-12-26T06:44:40.924Z,80.00
2018-12-26T06:47:20.890Z,80.20
2018-12-26T06:50:02.764Z,80.20
2018-12-26T06:52:41.949Z,80.20
2018-12-26T06:55:21.800Z,80.10
2018-12-26T06:58:02.087Z,80.00
2018-12-26T07:01:01.903Z,80.00
2018-12-26T07:03:41.737Z,80.20
2018-12-26T07:06:21.601Z,80.40
2018-12-26T07:09:01.601Z,80.40
2018-12-26T07:11:44.501Z,80.30
2018-12-26T07:14:24.551Z,80.40
2018-12-26T07:17:04.482Z,80.80
2018-12-26T07:19:44.506Z,81.10
2018-12-26T07:22:27.254Z,80.90
2018-12-26T07:25:07.114Z,80.70
2018-12-26T07:27:47.344Z,80.70
2018-12-26T07:30:27.228Z,80.70
2018-12-26T07:33:07.170Z,80.70
2018-12-26T07:35:46.973Z,80.80
2018-12-26T07:38:29.166Z,80.70
2018-12-26T07:41:11.260Z,80.80
2018-12-26T07:43:51.100Z,80.90
2018-12-26T07:46:33.157Z,80.90
2018-12-26T07:49:16.090Z,81.10
2018-12-26T07:51:55.974Z,81.50
2018-12-26T07:54:35.832Z,80.90
2018-12-26T07:57:15.657Z,80.90
2018-12-26T07:59:55.643Z,81.00
2018-12-26T08:02:37.828Z,81.00
2018-12-26T08:05:37.716Z,81.00
2018-12-26T08:08:17.607Z,81.20
2018-12-26T08:10:59.403Z,81.10
2018-12-26T08:13:39.396Z,81.40
2018-12-26T08:16:19.325Z,81.40
2018-12-26T08:19:01.292Z,81.40
2018-12-26T08:21:41.204Z,81.40
2018-12-26T08:24:21.159Z,81.20
2018-12-26T08:27:01.082Z,81.20
2018-12-26T08:29:43.045Z,81.40
2018-12-26T08:32:23.107Z,81.70
2018-12-26T08:35:03.064Z,81.90
2018-12-26T08:37:45.089Z,82.00
2018-12-26T08:40:27.356Z,81.90
2018-12-26T08:43:09.405Z,81.80
2018-12-26T08:45:49.153Z,81.80
2018-12-26T08:48:29.009Z,81.70
2018-12-26T08:51:10.999Z,81.80
2018-12-26T08:53:50.773Z,81.80
2018-12-26T08:56:32.920Z,82.00
2018-12-26T08:59:12.925Z,82.00
2018-12-26T09:01:52.948Z,82.00
2018-12-26T09:04:32.885Z,82.10
2018-12-26T09:07:15.582Z,82.10
2018-12-26T09:09:55.477Z,82.10
2018-12-26T09:12:35.361Z,82.20
2018-12-26T09:15:18.292Z,82.30
2018-12-26T09:17:58.394Z,82.30
2018-12-26T09:20:38.378Z,82.50
2018-12-26T09:23:18.160Z,82.70
2018-12-26T09:26:01.030Z,82.60
2018-12-26T09:28:43.935Z,82.60
2018-12-26T09:31:24.965Z,82.70
2018-12-26T09:34:08.057Z,82.70
2018-12-26T09:36:48.033Z,82.80
2018-12-26T09:39:48.145Z,82.80
2018-12-26T09:42:48.333Z,83.00
2018-12-26T09:45:30.423Z,83.20
2018-12-26T09:48:10.525Z,83.30
2018-12-26T09:50:52.341Z,83.50
2018-12-26T09:53:32.368Z,83.50
2018-12-26T09:56:12.385Z,83.50
2018-12-26T09:58:55.381Z,83.50
2018-12-26T10:01:35.282Z,84.10
2018-12-26T10:04:15.275Z,83.40
2018-12-26T10:06:57.141Z,83.50
2018-12-26T10:09:39.452Z,83.50
2018-12-26T10:12:21.374Z,83.50
2018-12-26T10:15:04.222Z,83.70
2018-12-26T10:17:44.078Z,83.70
2018-12-26T10:20:24.178Z,83.70
2018-12-26T10:23:04.038Z,83.60
2018-12-26T10:25:44.151Z,83.70
2018-12-26T10:29:00.808Z,83.60
2018-12-26T10:31:55.113Z,83.50
2018-12-26T10:34:34.925Z,83.70
2018-12-26T10:37:16.846Z,83.90
2018-12-26T10:39:57.007Z,84.00
2018-12-26T10:42:38.922Z,84.00
2018-12-26T10:45:21.939Z,84.00
2018-12-26T10:48:01.702Z,84.10
2018-12-26T10:50:41.826Z,84.20
2018-12-26T10:53:21.898Z,84.30
2018-12-26T10:56:21.928Z,84.30
2018-12-26T10:59:10.099Z,84.30
2018-12-26T11:01:46.681Z,84.20
2018-12-26T11:04:26.603Z,84.00
2018-12-26T11:07:06.466Z,84.50
2018-12-26T11:09:49.683Z,84.70
2018-12-26T11:12:49.832Z,84.70
2018-12-26T11:15:32.719Z,84.40
2018-12-26T11:18:12.698Z,84.50
2018-12-26T11:20:52.901Z,84.70
2018-12-26T11:23:32.804Z,84.70
2018-12-26T11:26:15.700Z,84.90
2018-12-26T11:28:55.840Z,85.00
2018-12-26T11:31:35.792Z,85.00
2018-12-26T11:34:15.808Z,85.00
2018-12-26T11:36:57.537Z,84.70
2018-12-26T11:39:37.586Z,85.10
2018-12-26T11:42:17.494Z,85.40
2018-12-26T11:44:59.515Z,86.00
2018-12-26T11:47:39.482Z,85.20
2018-12-26T11:50:40.401Z,85.40
2018-12-26T11:53:20.307Z,85.30
2018-12-26T11:56:02.272Z,85.20
2018-12-26T11:58:42.133Z,85.00
2018-12-26T12:01:21.969Z,85.20
2018-12-26T12:04:04.124Z,85.50
2018-12-26T12:06:47.068Z,85.60
2018-12-26T12:09:26.962Z,85.50
2018-12-26T12:12:06.882Z,85.30
2018-12-26T12:14:48.774Z,85.50
2018-12-26T12:17:28.552Z,85.40
2018-12-26T12:20:10.457Z,85.40
2018-12-26T12:22:54.354Z,85.40
2018-12-26T12:25:34.415Z,85.70
2018-12-26T12:28:14.610Z,85.70
2018-12-26T12:30:54.626Z,86.00
2018-12-26T12:33:37.525Z,86.00
2018-12-26T12:36:20.582Z,86.10
2018-12-26T12:39:00.493Z,86.10
2018-12-26T12:41:40.560Z,85.90
2018-12-26T12:44:21.600Z,86.00
2018-12-26T12:47:04.696Z,86.00
2018-12-26T12:49:46.874Z,86.00
2018-12-26T12:52:28.723Z,85.80
2018-12-26T12:55:08.879Z,86.20
2018-12-26T12:57:49.189Z,86.10
2018-12-26T13:00:29.018Z,86.00
2018-12-26T13:03:08.935Z,85.80
2018-12-26T13:06:09.467Z,86.00
2018-12-26T13:08:50.313Z,85.70
2018-12-26T13:11:33.192Z,86.20
2018-12-26T13:14:15.128Z,86.20
2018-12-26T13:16:55.134Z,86.20
2018-12-26T13:19:34.957Z,86.10
2018-12-26T13:22:16.787Z,86.30
2018-12-26T13:24:56.513Z,85.90
2018-12-26T13:27:38.532Z,85.70
2018-12-26T13:30:20.477Z,85.70
2018-12-26T13:33:00.425Z,85.70
2018-12-26T13:35:41.281Z,85.70
2018-12-26T13:38:23.193Z,86.00
2018-12-26T13:41:03.065Z,85.90
2018-12-26T13:43:42.917Z,85.80
2018-12-26T13:46:33.546Z,85.90
2018-12-26T13:49:07.047Z,86.10
2018-12-26T13:51:47.115Z,86.30
2018-12-26T13:54:27.010Z,86.30
2018-12-26T13:57:06.976Z,86.20
2018-12-26T13:59:46.873Z,85.90
2018-12-26T14:02:26.876Z,86.10
2018-12-26T14:05:27.083Z,86.00
2018-12-26T14:08:09.376Z,86.00
2018-12-26T14:11:09.479Z,85.90
2018-12-26T14:14:09.294Z,85.90
2018-12-26T14:16:49.294Z,86.10
2018-12-26T14:19:49.582Z,86.10
2018-12-26T14:22:31.578Z,85.90
2018-12-26T14:25:31.724Z,86.00
2018-12-26T14:28:11.680Z,86.00
2018-12-26T14:30:51.860Z,86.30
2018-12-26T14:33:31.703Z,86.30
2018-12-26T14:36:31.678Z,86.30
2018-12-26T14:39:11.690Z,86.40
2018-12-26T14:41:51.578Z,86.50
2018-12-26T14:44:31.488Z,86.30
2018-12-26T14:47:13.432Z,86.30
2018-12-26T14:49:55.614Z,86.00
2018-12-26T14:52:38.754Z,86.00
2018-12-26T14:55:18.693Z,86.10
2018-12-26T14:57:58.522Z,86.30
2018-12-26T15:00:40.581Z,86.30
2018-12-26T15:03:20.263Z,86.30
2018-12-26T15:06:02.326Z,86.30
2018-12-26T15:09:03.400Z,86.80
2018-12-26T15:11:45.444Z,86.20
2018-12-26T15:14:25.550Z,86.40
2018-12-26T15:17:05.560Z,86.40
2018-12-26T15:19:45.530Z,86.30
2018-12-26T15:22:27.405Z,86.40
2018-12-26T15:25:09.389Z,86.30
2018-12-26T15:27:52.307Z,86.30
2018-12-26T15:30:32.404Z,85.90
2018-12-26T15:33:12.545Z,86.30
2018-12-26T15:35:52.407Z,86.20
2018-12-26T15:38:34.467Z,86.50
2018-12-26T15:41:16.775Z,86.60
2018-12-26T15:43:59.721Z,86.70
2018-12-26T15:46:41.576Z,86.50
2018-12-26T15:49:21.441Z,86.70
2018-12-26T15:52:03.421Z,86.80
2018-12-26T15:54:46.262Z,86.80
2018-12-26T15:57:28.904Z,86.70
2018-12-26T16:00:08.785Z,86.60
2018-12-26T16:02:48.805Z,86.60
2018-12-26T16:05:28.753Z,86.70
2018-12-26T16:08:08.739Z,87.00
2018-12-26T16:10:48.656Z,87.10
2018-12-26T16:13:30.532Z,87.00
2018-12-26T16:16:10.505Z,87.10
2018-12-26T16:18:50.343Z,87.10
2018-12-26T16:21:32.594Z,87.00
2018-12-26T16:24:15.586Z,86.80
2018-12-26T16:26:58.462Z,86.70
2018-12-26T16:29:38.507Z,86.70
2018-12-26T16:32:18.313Z,86.60
2018-12-26T16:35:00.359Z,86.90
2018-12-26T16:37:43.354Z,86.90
2018-12-26T16:40:23.214Z,86.80
2018-12-26T16:43:02.953Z,86.90
2018-12-26T16:45:45.020Z,87.00
2018-12-26T16:48:24.812Z,87.10
2018-12-26T16:51:04.619Z,86.90
2018-12-26T16:53:46.597Z,86.90
2018-12-26T16:56:26.360Z,86.90
2018-12-26T16:59:06.364Z,87.00
2018-12-26T17:01:49.304Z,86.90
2018-12-26T17:04:31.472Z,86.70
2018-12-26T17:07:14.256Z,86.40
2018-12-26T17:09:54.239Z,86.70
2018-12-26T17:12:34.050Z,86.80
2018-12-26T17:15:13.916Z,86.90
2018-12-26T17:17:56.976Z,86.90
2018-12-26T17:20:38.781Z,87.00
2018-12-26T17:23:18.712Z,86.90
2018-12-26T17:26:00.442Z,86.90
2018-12-26T17:28:40.626Z,86.60
2018-12-26T17:31:20.657Z,86.90
2018-12-26T17:34:02.626Z,87.10
2018-12-26T17:36:42.809Z,87.00
2018-12-26T17:39:42.680Z,86.90
2018-12-26T17:42:22.649Z,86.80
2018-12-26T17:45:04.405Z,86.80
2018-12-26T17:47:44.505Z,87.00
2018-12-26T17:50:24.416Z,87.10
2018-12-26T17:53:04.422Z,87.60
2018-12-26T17:55:46.634Z,86.90
2018-12-26T17:58:29.646Z,86.90
2018-12-26T18:01:12.962Z,87.10
2018-12-26T18:04:12.704Z,87.20
2018-12-26T18:06:55.587Z,87.20
2018-12-26T18:09:35.533Z,87.30
2018-12-26T18:12:15.654Z,87.00
2018-12-26T18:14:55.592Z,87.00
2018-12-26T18:17:35.578Z,87.10
2018-12-26T18:20:15.711Z,87.50
2018-12-26T18:22:55.630Z,87.60
2018-12-26T18:25:55.531Z,87.60
2018-12-26T18:28:55.717Z,87.60
2018-12-26T18:31:36.820Z,87.60
2018-12-26T18:34:19.606Z,87.60
2018-12-26T18:36:59.693Z,87.50
2018-12-26T18:39:39.614Z,87.50
2018-12-26T18:42:19.637Z,87.50
2018-12-26T18:44:59.519Z,87.40
2018-12-26T18:47:59.509Z,87.60
2018-12-26T18:50:39.596Z,87.70
2018-12-26T18:53:19.741Z,87.60
2018-12-26T18:55:59.677Z,87.60
2018-12-26T18:58:39.573Z,87.60
2018-12-26T19:01:19.746Z,87.60
2018-12-26T19:03:59.757Z,87.70
2018-12-26T19:06:39.749Z,87.70
2018-12-26T19:09:21.556Z,87.90
2018-12-26T19:12:01.034Z,88.20
2018-12-26T19:14:43.074Z,88.30
2018-12-26T19:17:26.102Z,88.30
2018-12-26T19:20:06.229Z,88.10
2018-12-26T19:22:49.128Z,88.20
2018-12-26T19:25:29.157Z,88.10
2018-12-26T19:28:08.888Z,88.00
2018-12-26T19:30:50.990Z,88.20
2018-12-26T19:33:33.275Z,88.10
2018-12-26T19:36:16.281Z,88.10
2018-12-26T19:38:56.131Z,88.20
2018-12-26T19:41:35.886Z,88.20
2018-12-26T19:44:15.770Z,88.20
2018-12-26T19:46:55.709Z,88.10
2018-12-26T19:49:38.439Z,88.10
2018-12-26T19:52:19.280Z,88.60
2018-12-26T19:55:01.274Z,87.70
2018-12-26T19:57:44.253Z,87.90
2018-12-26T20:00:24.289Z,87.90
2018-12-26T20:03:04.109Z,87.80
2018-12-26T20:05:44.118Z,87.70
2018-12-26T20:08:27.145Z,87.80
2018-12-26T20:11:07.180Z,87.80
2018-12-26T20:13:47.182Z,88.00
2018-12-26T20:16:29.254Z,88.10
2018-12-26T20:19:11.247Z,87.70
2018-12-26T20:21:51.285Z,87.50
2018-12-26T20:24:31.198Z,87.40
2018-12-26T20:27:13.981Z,87.60
2018-12-26T20:29:53.790Z,87.50
2018-12-26T20:32:36.841Z,87.50
2018-12-26T20:35:16.660Z,87.70
2018-12-26T20:37:56.622Z,87.50
2018-12-26T20:40:38.541Z,87.90
2018-12-26T20:43:20.717Z,87.20
2018-12-26T20:46:03.577Z,87.20
2018-12-26T20:48:43.799Z,87.10
2018-12-26T20:51:23.773Z,86.90
2018-12-26T20:54:03.731Z,86.50
2018-12-26T20:56:46.598Z,86.80
2018-12-26T20:59:26.718Z,87.30
2018-12-26T21:02:06.062Z,87.30
2018-12-26T21:04:45.845Z,87.10
2018-12-26T21:07:26.058Z,86.80
2018-12-26T21:10:06.732Z,86.80
2018-12-26T21:12:49.008Z,86.70
2018-12-26T21:15:31.921Z,86.90
2018-12-26T21:18:11.817Z,86.80
2018-12-26T21:20:53.613Z,86.80
2018-12-26T21:23:33.553Z,86.40
2018-12-26T21:26:13.520Z,86.10
2018-12-26T21:28:53.440Z,86.20
2018-12-26T21:31:34.130Z,86.30
2018-12-26T21:34:13.785Z,86.50
2018-12-26T21:36:53.877Z,86.40
2018-12-26T21:39:33.917Z,86.40
2018-12-26T21:42:13.640Z,86.40
2018-12-26T21:44:53.658Z,85.90
2018-12-26T21:47:33.611Z,86.20
2018-12-26T21:50:13.336Z,86.50
2018-12-26T21:52:56.146Z,86.00
2018-12-26T21:55:36.045Z,86.20
2018-12-26T21:58:15.902Z,86.10
2018-12-26T22:00:58.838Z,86.10
2018-12-26T22:03:38.893Z,86.30
2018-12-26T22:06:05.172Z,85.80
2018-12-26T22:08:31.456Z,86.20
2018-12-26T22:10:57.825Z,86.30
2018-12-26T22:13:24.184Z,86.40
2018-12-26T22:15:53.192Z,86.00
2018-12-26T22:18:20.306Z,86.10
2018-12-26T22:20:59.726Z,86.10
2018-12-26T22:23:39.934Z,86.10
2018-12-26T22:26:20.096Z,86.00
2018-12-26T22:28:59.259Z,85.70
2018-12-26T22:31:38.604Z,86.00
2018-12-26T22:34:18.637Z,85.80
2018-12-26T22:36:58.926Z,85.70
2018-12-26T22:39:38.875Z,85.60
2018-12-26T22:42:19.652Z,85.60
2018-12-26T22:44:59.606Z,85.40
2018-12-26T22:47:39.685Z,85.50
2018-12-26T22:50:19.876Z,85.20
2018-12-26T22:52:59.806Z,84.80
2018-12-26T22:55:41.813Z,85.10
2018-12-26T22:58:23.759Z,85.20
2018-12-26T23:01:03.608Z,85.10
2018-12-26T23:03:45.800Z,85.20
2018-12-26T23:06:28.106Z,85.00
2018-12-26T23:09:11.250Z,85.10
2018-12-26T23:11:50.557Z,84.20
2018-12-26T23:14:27.897Z,84.50
2018-12-26T23:17:31.009Z,84.90
2018-12-26T23:20:10.958Z,84.60
2018-12-26T23:22:51.204Z,84.00
2018-12-26T23:25:31.064Z,84.60
2018-12-26T23:28:13.334Z,84.30
2018-12-26T23:30:53.315Z,84.10
2018-12-26T23:33:32.615Z,83.60
2018-12-26T23:36:12.721Z,83.40
2018-12-26T23:38:54.825Z,82.90
2018-12-26T23:41:34.881Z,83.40
2018-12-26T23:44:14.878Z,84.00
2018-12-26T23:46:54.623Z,83.40
2018-12-26T23:49:34.626Z,82.30
2018-12-26T23:52:13.788Z,81.90
2018-12-26T23:54:56.502Z,82.60
2018-12-26T23:57:36.295Z,82.40
